Hauptseite
METAR-TAF:

METAR-TAF

Flughäfen :

Flughafen Antonio B. Won Pat

Hagåtña, Guam, Vereinigte Staaten

Breite: 13-29N, Länge: 144-48E, Höhe: 91 m

Beobachtung

Neuester Wetterbericht von vor 31 Minuten, um 07:54 UTC
Wind 4 kt aus Ost/Nordost
Temperatur 29°C
Luftfeuchtigkeit 89%
Luftdruck 1010 hPa
Sichtweite: 16.1 km
Himmel klar

METAR: PGUM 220754Z 06004KT 10SM CLR 29/27 A2983 RMK AO2 SLP093 T02940267 $

Zeit: 18:25 (08:25 UTC)

Prognose

Neuester Wetterbericht von vor 52 Minuten, um 07:33 UTC
Gültige Prognose vom 22 um 08 UTC bis 23 um 12 UTC
Wind 4 kt aus unterschiedlichen Richtungen
Sichtweite: 10 km
Leicht bewölkt in der Höhe von 1800 ft
Aufgelockert bewölkt in der Höhe von 3500 ft
Durchbrochene Bewölkung in der Höhe von 15000 ft
Schauer in der Nähe

TAF: PGUM 220733Z 2208/2312 VRB04KT P6SM VCSH FEW018 SCT035 BKN150

Wetterbeobachtungen und Prognosen von mehr als 4000 Flughäfen (METAR und TAF Bericht).

Die verfügbaren Stationen werden durch gelbe und rote Markierungen auf der Karte dargestellt.

Führen Sie die Maus auf sie, um den Namen der Station zu sehen.

Darauf klicken, um die Beobachtung von Wetterbeobachtungen und Prognosen zu sehen.

Um die Karte zu ändern : klicken Sie auf den grünen Tasten mit einem schwarzen Kreuz Zum Vergrößern, auf den grünen Button mit einem Gedankenstrich zu verkleinern, oder auf die grünen Pfeile für benachbarte Karten.


METAR-TAF: